Time;durP1;ratioP1;P1;durP2;ratioP2;P2;SDS_P1;SDS_P2;PMS_P1;PMS_P2;Temp;Humidity;BMP_temperature;BMP_pressure;BME280_temperature;BME280_humidity;BME280_pressure;Samples;Min_cycle;Max_cycle;Signal;HPM_P1;HPM_P2
2023/05/19 00:01:13;;;;;;;11.43;8.13;;;;;;;10.48;68.54;99790.69;5028327;28;20045;-72
2023/05/19 00:03:51;;;;;;;9.68;7.65;;;;;;;10.33;68.59;99762.28;5027673;28;20038;-73
2023/05/19 00:06:23;;;;;;;10.25;8.10;;;;;;;9.95;68.22;99709.34;5028407;28;20226;-72
2023/05/19 00:08:53;;;;;;;9.48;7.50;;;;;;;10.09;68.41;99732.53;5027645;28;20045;-73
2023/05/19 00:11:21;;;;;;;8.77;7.75;;;;;;;10.46;68.53;99781.97;5028108;28;20052;-73
2023/05/19 00:13:49;;;;;;;10.93;7.82;;;;;;;10.47;68.55;99782.81;5028044;28;20112;-73
2023/05/19 00:16:16;;;;;;;10.30;8.65;;;;;;;10.45;68.57;99780.25;5027682;28;20053;-73
2023/05/19 00:18:43;;;;;;;11.80;9.52;;;;;;;10.46;68.51;99779.31;5027400;28;20057;-73
2023/05/19 00:21:11;;;;;;;10.32;8.05;;;;;;;10.45;68.68;99774.94;5027666;28;20062;-72
2023/05/19 00:23:38;;;;;;;10.63;8.90;;;;;;;10.45;68.50;99785.53;5027601;28;20297;-72
2023/05/19 00:26:05;;;;;;;11.43;8.10;;;;;;;10.45;68.56;99782.91;5027500;28;20333;-72
2023/05/19 00:28:32;;;;;;;13.02;9.18;;;;;;;10.44;68.57;99783.81;5027809;28;20091;-72
2023/05/19 00:30:59;;;;;;;17.92;12.30;;;;;;;10.44;68.61;99777.66;5027465;28;20092;-72
2023/05/19 00:33:26;;;;;;;25.55;16.73;;;;;;;10.44;68.77;99778.53;5027753;28;20050;-73
2023/05/19 00:35:53;;;;;;;21.02;14.32;;;;;;;9.97;68.92;99696.03;5025785;28;20044;-72
2023/05/19 00:38:21;;;;;;;13.30;10.68;;;;;;;10.44;69.04;99777.66;5027028;28;20117;-72
2023/05/19 00:40:48;;;;;;;11.82;9.00;;;;;;;10.43;68.95;99776.81;5026190;28;20301;-73
2023/05/19 00:43:15;;;;;;;13.90;9.02;;;;;;;10.43;68.76;99774.16;5026129;28;20033;-73
2023/05/19 00:45:41;;;;;;;10.68;8.25;;;;;;;10.44;69.09;99769.72;5027213;28;20290;-73
2023/05/19 00:48:08;;;;;;;10.07;8.48;;;;;;;10.42;68.93;99767.13;5027343;28;20050;-73
2023/05/19 00:50:35;;;;;;;10.63;8.68;;;;;;;10.42;68.99;99772.44;5027352;28;20050;-72
2023/05/19 00:53:02;;;;;;;9.55;8.43;;;;;;;10.41;68.96;99761.91;5026815;28;20049;-72
2023/05/19 00:55:31;;;;;;;12.57;9.68;;;;;;;10.40;69.03;99766.34;5026722;28;20050;-72
2023/05/19 00:57:58;;;;;;;11.50;8.88;;;;;;;10.39;68.74;99763.78;5026702;28;20202;-71
2023/05/19 01:00:25;;;;;;;15.70;9.02;;;;;;;10.37;69.01;99761.22;5026944;28;20061;-71
2023/05/19 01:02:53;;;;;;;9.50;7.93;;;;;;;10.37;68.83;99765.66;5026613;28;20290;-71
2023/05/19 01:05:20;;;;;;;11.15;10.05;;;;;;;10.35;68.85;99763.06;5027142;28;20205;-71
2023/05/19 01:07:52;;;;;;;11.85;10.10;;;;;;;10.34;68.84;99765.78;5026724;28;20359;-72
2023/05/19 01:10:19;;;;;;;11.43;9.65;;;;;;;9.82;68.91;99687.00;5027073;28;20112;-72
2023/05/19 01:12:47;;;;;;;9.48;8.48;;;;;;;10.31;69.01;99769.44;5026710;28;20044;-73
2023/05/19 01:15:15;;;;;;;13.95;10.77;;;;;;;9.83;68.96;99685.22;5025559;28;20154;-74
2023/05/19 01:17:49;;;;;;;11.02;9.52;;;;;;;10.27;69.03;99758.13;5026922;28;20045;-73
2023/05/19 01:20:20;;;;;;;11.93;9.85;;;;;;;10.24;69.07;99757.41;5026897;28;20042;-73
2023/05/19 01:23:15;;;;;;;9.45;8.52;;;;;;;10.22;69.45;99749.53;5025280;28;20125;-73
2023/05/19 01:26:13;;;;;;;11.15;9.52;;;;;;;10.20;69.55;99755.84;5026530;28;20072;-73
2023/05/19 01:29:28;;;;;;;11.35;9.30;;;;;;;10.20;69.35;99759.34;5025051;28;20054;-73
2023/05/19 01:32:00;;;;;;;10.23;9.20;;;;;;;10.17;69.45;99756.00;5020893;28;20061;-73
2023/05/19 01:34:27;;;;;;;10.88;9.20;;;;;;;10.19;69.36;99751.47;5026080;28;20260;-74
2023/05/19 01:36:55;;;;;;;12.70;9.68;;;;;;;10.19;69.45;99751.47;5025273;28;20290;-73
2023/05/19 01:39:23;;;;;;;13.43;9.63;;;;;;;10.17;69.41;99751.56;5026297;28;20053;-73
2023/05/19 01:41:50;;;;;;;10.75;9.18;;;;;;;10.17;69.53;99743.59;5025430;28;20049;-73
2023/05/19 01:44:18;;;;;;;11.48;9.15;;;;;;;10.15;69.41;99750.78;5026481;28;20045;-73
2023/05/19 01:46:45;;;;;;;11.60;9.68;;;;;;;10.15;69.73;99750.78;5026266;28;20132;-72
2023/05/19 01:49:13;;;;;;;10.20;9.02;;;;;;;10.14;69.67;99750.84;5024345;28;20068;-72
2023/05/19 01:51:41;;;;;;;13.23;11.82;;;;;;;10.11;69.71;99746.53;5026652;28;20225;-73
2023/05/19 01:54:07;;;;;;;15.15;13.30;;;;;;;10.12;69.81;99750.06;5025000;28;20245;-73
2023/05/19 01:56:42;;;;;;;16.48;11.27;;;;;;;10.09;69.77;99751.06;5026058;28;20049;-73
2023/05/19 01:59:23;;;;;;;12.43;10.23;;;;;;;10.07;70.05;99755.56;5024959;28;20049;-72
2023/05/19 02:01:53;;;;;;;11.77;10.35;;;;;;;10.07;69.83;99752.06;5026009;28;20216;-73
2023/05/19 02:04:29;;;;;;;12.43;10.57;;;;;;;10.05;70.17;99748.63;5026259;28;20038;-72
2023/05/19 02:07:03;;;;;;;12.43;10.13;;;;;;;10.05;70.04;99752.13;5025871;28;20352;-73
2023/05/19 02:09:44;;;;;;;11.85;9.63;;;;;;;9.53;70.22;99691.00;5025658;28;20050;-73
2023/05/19 02:12:19;;;;;;;15.55;9.65;;;;;;;9.99;70.13;99748.91;5025914;28;20057;-72
2023/05/19 02:14:52;;;;;;;13.00;9.30;;;;;;;9.97;70.41;99743.69;5025872;28;20065;-72
2023/05/19 02:17:20;;;;;;;11.93;9.80;;;;;;;9.99;70.14;99738.31;5025834;28;20057;-72
2023/05/19 02:19:48;;;;;;;13.70;10.35;;;;;;;9.99;70.27;99744.47;5025561;28;20294;-72
2023/05/19 02:22:15;;;;;;;11.68;10.32;;;;;;;9.99;70.16;99743.63;5025217;28;20068;-72
2023/05/19 02:24:43;;;;;;;12.73;9.75;;;;;;;9.98;70.10;99739.25;5024600;28;20257;-72
2023/05/19 02:27:09;;;;;;;11.80;9.93;;;;;;;9.97;70.22;99740.19;5025928;28;20061;-72
2023/05/19 02:29:36;;;;;;;10.57;9.05;;;;;;;9.97;70.28;99740.19;5024639;28;20306;-72
2023/05/19 02:32:03;;;;;;;12.93;11.07;;;;;;;9.96;70.40;99736.69;5024543;28;20072;-73
2023/05/19 02:34:30;;;;;;;13.05;10.18;;;;;;;9.95;70.44;99732.31;5025448;28;20053;-72
2023/05/19 02:36:58;;;;;;;12.50;10.52;;;;;;;9.95;70.41;99734.97;5025402;28;20320;-71
2023/05/19 02:39:25;;;;;;;13.23;10.63;;;;;;;9.95;70.55;99734.97;5025606;28;20112;-72
2023/05/19 02:41:51;;;;;;;11.00;9.73;;;;;;;9.94;70.55;99736.75;5025844;28;20042;-71
2023/05/19 02:44:18;;;;;;;13.05;10.48;;;;;;;9.93;70.45;99734.16;5024443;28;20112;-72
2023/05/19 02:46:45;;;;;;;11.30;8.70;;;;;;;9.92;70.63;99727.16;5025176;28;20046;-71
2023/05/19 02:49:12;;;;;;;13.00;10.38;;;;;;;9.91;70.63;99726.28;5024441;28;20042;-72
2023/05/19 02:51:38;;;;;;;10.80;8.93;;;;;;;9.90;70.63;99723.72;5024350;28;20041;-71
2023/05/19 02:54:06;;;;;;;11.88;9.93;;;;;;;9.89;70.50;99729.94;5025510;28;20269;-72
2023/05/19 02:56:33;;;;;;;12.07;9.73;;;;;;;9.87;70.69;99724.72;5024385;28;20038;-71
2023/05/19 02:59:00;;;;;;;12.98;10.13;;;;;;;9.87;70.71;99727.38;5025869;28;20202;-72
2023/05/19 03:01:27;;;;;;;10.50;9.25;;;;;;;9.87;70.71;99729.16;5029439;28;20060;-72
2023/05/19 03:03:53;;;;;;;11.30;9.68;;;;;;;9.85;70.74;99731.03;5029426;28;20194;-72
2023/05/19 03:06:22;;;;;;;13.50;10.55;;;;;;;9.85;70.79;99728.38;5029354;28;20042;-72
2023/05/19 03:08:49;;;;;;;10.90;9.15;;;;;;;9.84;70.83;99730.16;5028973;28;20206;-71
2023/05/19 03:11:17;;;;;;;10.57;9.23;;;;;;;9.37;70.59;99657.34;5027661;28;20314;-71
2023/05/19 03:13:44;;;;;;;10.05;8.40;;;;;;;9.84;70.75;99739.88;5029245;28;20041;-72
2023/05/19 03:16:11;;;;;;;8.75;7.70;;;;;;;9.83;70.69;99744.31;5027840;28;20049;-72
2023/05/19 03:18:38;;;;;;;10.05;8.98;;;;;;;9.81;70.76;99751.47;5028576;28;20060;-72
2023/05/19 03:21:05;;;;;;;11.70;8.05;;;;;;;9.83;70.48;99746.13;5027497;28;20041;-72
2023/05/19 03:23:31;;;;;;;11.85;9.20;;;;;;;9.80;70.56;99741.81;5027693;28;20045;-72
2023/05/19 03:25:58;;;;;;;10.60;9.23;;;;;;;9.81;70.38;99745.31;5028717;28;20183;-72
2023/05/19 03:28:27;;;;;;;11.15;8.65;;;;;;;9.81;70.35;99750.63;5028590;28;20038;-72
2023/05/19 03:30:53;;;;;;;10.48;8.15;;;;;;;9.79;70.34;99748.03;5028546;28;20065;-72
2023/05/19 03:33:20;;;;;;;9.93;7.63;;;;;;;9.78;70.58;99745.47;5028681;28;20045;-71
2023/05/19 03:35:47;;;;;;;9.60;7.63;;;;;;;9.75;70.40;99743.81;5028241;28;20037;-72
2023/05/19 03:38:14;;;;;;;10.48;7.57;;;;;;;9.74;70.28;99757.97;5028917;28;20308;-72
2023/05/19 03:40:41;;;;;;;8.77;7.88;;;;;;;9.75;70.46;99756.19;5028659;28;20046;-72
2023/05/19 03:43:08;;;;;;;10.27;6.90;;;;;;;9.74;70.37;99752.69;5027274;28;20045;-72
2023/05/19 03:45:36;;;;;;;8.10;6.75;;;;;;;9.74;70.12;99751.81;5028650;28;20060;-72
2023/05/19 03:48:02;;;;;;;9.38;6.65;;;;;;;9.74;70.12;99757.97;5027917;28;20348;-71
2023/05/19 03:50:30;;;;;;;9.23;6.95;;;;;;;9.75;70.19;99756.19;5028438;28;20101;-72
2023/05/19 03:52:57;;;;;;;8.30;6.55;;;;;;;9.75;70.02;99751.75;5027081;28;20336;-72
2023/05/19 03:55:24;;;;;;;8.15;6.80;;;;;;;9.58;70.08;99734.00;5028469;28;20042;-72
2023/05/19 03:57:51;;;;;;;9.75;7.10;;;;;;;9.73;70.20;99750.09;5028153;28;20088;-72
2023/05/19 04:00:19;;;;;;;9.20;6.97;;;;;;;9.74;70.11;99755.34;5028057;28;20080;-72
2023/05/19 04:02:47;;;;;;;11.68;7.05;;;;;;;9.73;69.95;99760.69;5027733;28;20175;-72
2023/05/19 04:05:14;;;;;;;8.48;7.25;;;;;;;9.72;70.13;99757.19;5027660;28;20042;-72
2023/05/19 04:07:41;;;;;;;7.95;6.07;;;;;;;9.72;70.06;99756.31;5028168;28;20042;-72
2023/05/19 04:10:09;;;;;;;10.00;6.78;;;;;;;9.69;70.00;99753.81;5027555;28;20069;-72
2023/05/19 04:12:36;;;;;;;8.77;7.07;;;;;;;9.69;69.91;99765.25;5027087;28;20103;-72
2023/05/19 04:15:02;;;;;;;8.07;6.47;;;;;;;9.68;70.06;99763.53;5026699;28;20046;-72
2023/05/19 04:17:29;;;;;;;8.30;6.53;;;;;;;9.67;69.93;99764.47;5028022;28;20068;-73
2023/05/19 04:19:57;;;;;;;8.93;6.80;;;;;;;9.53;69.99;99741.28;5027691;28;20125;-73
2023/05/19 04:22:24;;;;;;;11.95;6.93;;;;;;;8.98;70.01;99650.22;5027288;28;20057;-73
2023/05/19 04:24:51;;;;;;;8.30;6.70;;;;;;;9.67;69.95;99771.56;5026821;28;20048;-72
2023/05/19 04:27:18;;;;;;;8.10;6.22;;;;;;;9.65;70.08;99766.34;5027802;28;20038;-72
2023/05/19 04:29:47;;;;;;;10.60;7.22;;;;;;;9.65;70.09;99757.53;5027495;28;20042;-73
2023/05/19 04:32:16;;;;;;;11.48;8.65;;;;;;;9.50;69.97;99735.25;5026616;28;20053;-72
2023/05/19 04:34:44;;;;;;;9.40;7.30;;;;;;;9.65;69.82;99770.75;5027163;28;20092;-72
2023/05/19 04:37:12;;;;;;;10.63;8.38;;;;;;;9.51;69.86;99744.91;5026527;28;20045;-72
2023/05/19 04:39:41;;;;;;;11.05;6.28;;;;;;;7.36;69.68;99379.13;5027071;28;20046;-72
2023/05/19 04:42:08;;;;;;;8.73;6.97;;;;;;;9.65;69.93;99753.09;5027048;28;20053;-72
2023/05/19 04:44:36;;;;;;;8.45;7.05;;;;;;;8.93;70.04;99639.88;5027479;28;20088;-72
2023/05/19 04:47:05;;;;;;;8.35;7.03;;;;;;;9.68;70.07;99760.03;5026073;28;20053;-72
2023/05/19 04:49:32;;;;;;;9.32;7.10;;;;;;;9.69;70.00;99759.13;5027100;28;20034;-72
2023/05/19 04:51:58;;;;;;;8.30;6.47;;;;;;;9.69;69.90;99756.47;5027416;28;20198;-72
2023/05/19 04:54:26;;;;;;;10.40;6.82;;;;;;;9.68;69.56;99763.53;5025966;28;20049;-72
2023/05/19 04:56:53;;;;;;;9.82;6.28;;;;;;;9.71;69.65;99762.56;5027046;28;20378;-72
2023/05/19 04:59:22;;;;;;;7.72;5.97;;;;;;;9.71;69.59;99762.56;5026983;28;20084;-72
2023/05/19 05:01:49;;;;;;;7.03;5.15;;;;;;;7.41;69.35;99369.25;5026886;28;20364;-71
2023/05/19 05:04:15;;;;;;;9.43;6.80;;;;;;;9.72;69.64;99766.91;5025814;28;20041;-72
2023/05/19 05:06:46;;;;;;;8.95;6.03;;;;;;;9.76;69.59;99760.56;5027116;28;20046;-72
2023/05/19 05:09:13;;;;;;;7.03;5.85;;;;;;;9.24;69.35;99671.13;5026962;28;20045;-72
2023/05/19 05:11:42;;;;;;;6.57;5.22;;;;;;;9.82;69.09;99763.78;5025548;28;20044;-72
2023/05/19 05:14:09;;;;;;;9.13;6.55;;;;;;;9.82;69.21;99766.44;5027015;28;20045;-72
2023/05/19 05:16:36;;;;;;;11.48;6.22;;;;;;;9.85;69.37;99760.13;5026432;28;20069;-72
2023/05/19 05:19:03;;;;;;;6.65;5.07;;;;;;;9.90;69.20;99763.44;5026638;28;20099;-72
2023/05/19 05:21:31;;;;;;;7.80;6.60;;;;;;;9.94;68.85;99759.72;5026262;28;20062;-72
2023/05/19 05:23:59;;;;;;;7.15;5.43;;;;;;;9.99;68.84;99767.44;5025458;28;20060;-71
2023/05/19 05:26:29;;;;;;;8.57;5.53;;;;;;;10.01;68.62;99769.09;5026277;28;20041;-72
2023/05/19 05:28:58;;;;;;;7.72;5.47;;;;;;;10.04;68.56;99773.38;5025293;28;20037;-72
2023/05/19 05:31:24;;;;;;;7.80;5.80;;;;;;;10.08;68.42;99774.97;5026462;28;20049;-72
2023/05/19 05:33:51;;;;;;;8.77;6.18;;;;;;;10.10;68.48;99773.97;5026062;28;20060;-72
2023/05/19 05:36:18;;;;;;;7.53;5.47;;;;;;;10.14;68.35;99772.03;5026326;28;20112;-72
2023/05/19 05:38:45;;;;;;;7.70;5.05;;;;;;;10.18;68.02;99770.94;5026608;28;20052;-72
2023/05/19 05:41:12;;;;;;;8.85;5.35;;;;;;;10.22;68.02;99768.09;5025195;28;20041;-72
2023/05/19 05:43:38;;;;;;;10.43;6.65;;;;;;;9.79;68.15;99712.78;5025930;28;20210;-72
2023/05/19 05:46:07;;;;;;;7.30;5.25;;;;;;;10.26;67.95;99766.16;5025913;28;20065;-72
2023/05/19 05:48:34;;;;;;;6.95;5.72;;;;;;;10.20;67.86;99751.41;5025816;28;20042;-72
2023/05/19 05:51:01;;;;;;;6.95;5.70;;;;;;;10.37;67.64;99771.81;5024946;28;20048;-72
2023/05/19 05:53:30;;;;;;;7.43;6.20;;;;;;;10.38;68.01;99772.66;5026384;28;20058;-72
2023/05/19 05:55:58;;;;;;;7.32;5.82;;;;;;;10.40;67.89;99779.59;5026051;28;20144;-72
2023/05/19 05:58:24;;;;;;;7.57;5.50;;;;;;;9.69;67.69;99654.09;5025973;28;20041;-72
2023/05/19 06:00:54;;;;;;;6.85;5.35;;;;;;;10.44;67.63;99777.66;5024902;28;20049;-72
2023/05/19 06:03:23;;;;;;;9.13;5.60;;;;;;;10.47;67.22;99777.53;5026124;28;20255;-72
2023/05/19 06:05:49;;;;;;;9.60;6.15;;;;;;;10.49;67.66;99780.97;5025634;28;20056;-72
2023/05/19 06:08:17;;;;;;;6.90;5.13;;;;;;;10.52;67.35;99778.16;5024692;28;20072;-72
2023/05/19 06:10:43;;;;;;;7.55;5.30;;;;;;;10.54;67.39;99776.28;5025713;28;20124;-72
2023/05/19 06:13:10;;;;;;;6.65;4.70;;;;;;;9.85;67.21;99656.91;5026108;28;20046;-72
2023/05/19 06:15:37;;;;;;;7.32;5.45;;;;;;;10.57;67.24;99778.78;5025708;28;20210;-72
2023/05/19 06:18:04;;;;;;;7.60;5.55;;;;;;;10.62;67.18;99776.78;5025826;28;20041;-72
2023/05/19 06:20:32;;;;;;;7.70;5.50;;;;;;;10.66;66.93;99780.13;5025807;28;20324;-72
2023/05/19 06:23:00;;;;;;;7.57;5.35;;;;;;;10.73;66.73;99782.41;5025430;28;20061;-72
2023/05/19 06:25:26;;;;;;;7.20;5.75;;;;;;;10.69;66.98;99764.09;5025769;28;20048;-72
2023/05/19 06:27:53;;;;;;;6.45;5.28;;;;;;;10.88;66.72;99775.53;5024498;28;20045;-72
2023/05/19 06:30:20;;;;;;;8.38;6.03;;;;;;;10.83;66.38;99751.03;5025995;28;20080;-72
2023/05/19 06:32:47;;;;;;;7.28;5.28;;;;;;;11.05;66.11;99772.03;5024510;28;20100;-71
2023/05/19 06:35:13;;;;;;;6.93;4.97;;;;;;;11.11;65.79;99777.03;5028416;28;20294;-72
2023/05/19 06:37:41;;;;;;;6.22;4.90;;;;;;;11.18;65.74;99767.81;5029274;28;20042;-72
2023/05/19 06:40:09;;;;;;;6.47;4.97;;;;;;;11.10;65.57;99752.31;5029805;28;20037;-72
2023/05/19 06:42:36;;;;;;;7.55;5.25;;;;;;;11.28;65.21;99779.69;5029751;28;20038;-73
2023/05/19 06:45:03;;;;;;;6.43;5.13;;;;;;;11.38;65.49;99770.31;5029328;28;20053;-72
2023/05/19 06:47:30;;;;;;;5.88;5.07;;;;;;;11.51;65.42;99773.19;5029104;28;20052;-72
2023/05/19 06:49:56;;;;;;;8.63;5.78;;;;;;;11.59;64.71;99775.44;5029018;28;20285;-72
2023/05/19 06:52:24;;;;;;;7.45;5.65;;;;;;;11.61;64.15;99773.56;5029621;28;20053;-72
2023/05/19 06:54:52;;;;;;;7.35;5.35;;;;;;;11.66;64.21;99777.69;5029224;28;20046;-72
2023/05/19 06:57:19;;;;;;;8.23;6.00;;;;;;;11.69;64.57;99774.88;5029315;28;20076;-72
2023/05/19 06:59:46;;;;;;;8.07;6.07;;;;;;;11.74;64.08;99778.13;5029301;28;20113;-72
2023/05/19 07:02:13;;;;;;;6.38;5.65;;;;;;;11.78;64.33;99774.38;5028508;28;20209;-72
2023/05/19 07:04:40;;;;;;;8.32;6.00;;;;;;;11.70;64.13;99760.66;5028827;28;20042;-72
2023/05/19 07:07:07;;;;;;;6.80;5.00;;;;;;;11.82;64.18;99775.94;5029081;28;20056;-72
2023/05/19 07:09:33;;;;;;;6.88;5.70;;;;;;;11.84;64.15;99782.00;5029183;28;20230;-72
2023/05/19 07:12:02;;;;;;;6.63;5.05;;;;;;;11.86;64.04;99787.25;5028866;28;20045;-72
2023/05/19 07:14:28;;;;;;;6.53;4.93;;;;;;;11.89;64.31;99789.75;5028908;28;20260;-72
2023/05/19 07:16:55;;;;;;;7.93;6.05;;;;;;;11.89;64.04;99798.56;5027744;28;20037;-72
2023/05/19 07:19:22;;;;;;;7.13;5.55;;;;;;;11.89;64.29;99795.91;5028875;28;20285;-72
2023/05/19 07:21:49;;;;;;;6.97;5.10;;;;;;;11.89;64.30;99798.56;5028522;28;20245;-72
2023/05/19 07:24:16;;;;;;;9.38;7.13;;;;;;;11.86;64.23;99793.41;5028995;28;20104;-72
2023/05/19 07:26:43;;;;;;;9.38;6.05;;;;;;;11.83;63.86;99796.25;5028931;28;20052;-72
2023/05/19 07:29:11;;;;;;;9.82;6.18;;;;;;;11.83;63.77;99790.06;5028315;28;20038;-73
2023/05/19 07:31:38;;;;;;;8.50;6.13;;;;;;;11.87;64.00;99786.31;5028483;28;20057;-71
2023/05/19 07:34:04;;;;;;;6.78;5.43;;;;;;;11.95;64.31;99778.78;5027463;28;20041;-72
2023/05/19 07:36:31;;;;;;;8.98;7.07;;;;;;;12.06;64.07;99775.56;5027486;28;20286;-72
2023/05/19 07:38:58;;;;;;;12.18;7.10;;;;;;;12.17;63.62;99771.41;5027359;28;20038;-72
2023/05/19 07:41:25;;;;;;;8.80;6.80;;;;;;;12.25;63.65;99771.00;5028541;28;20052;-72
2023/05/19 07:43:51;;;;;;;8.68;6.18;;;;;;;12.32;63.41;99775.03;5028040;28;20052;-72
2023/05/19 07:46:20;;;;;;;8.02;6.65;;;;;;;12.38;63.08;99776.50;5027083;28;20038;-72
2023/05/19 07:48:47;;;;;;;7.82;5.70;;;;;;;12.39;62.63;99779.06;5026989;28;20065;-72
2023/05/19 07:51:14;;;;;;;9.30;6.30;;;;;;;12.53;63.28;99780.94;5027861;28;20046;-71
2023/05/19 07:53:41;;;;;;;8.05;5.88;;;;;;;12.72;62.79;99776.28;5027539;28;20056;-72
2023/05/19 07:56:08;;;;;;;7.85;6.07;;;;;;;12.89;62.23;99780.66;5028153;28;20341;-72
2023/05/19 07:58:35;;;;;;;8.25;5.95;;;;;;;13.02;61.93;99778.13;5027711;28;20056;-72
2023/05/19 08:01:02;;;;;;;7.88;5.70;;;;;;;13.12;61.44;99784.63;5028241;28;20046;-72
2023/05/19 08:03:30;;;;;;;7.63;5.55;;;;;;;13.21;61.05;99783.22;5027788;28;20041;-72
2023/05/19 08:05:57;;;;;;;7.20;5.32;;;;;;;13.21;60.59;99776.09;5027974;28;20081;-72
2023/05/19 08:08:24;;;;;;;8.13;5.97;;;;;;;13.24;60.86;99788.38;5027809;28;20054;-72
2023/05/19 08:10:51;;;;;;;9.38;6.03;;;;;;;13.18;60.75;99764.78;5027567;28;20112;-73
2023/05/19 08:13:18;;;;;;;10.45;6.55;;;;;;;13.29;60.87;99776.50;5027601;28;20118;-72
2023/05/19 08:15:44;;;;;;;7.32;5.50;;;;;;;13.26;60.51;99784.66;5027401;28;20072;-72
2023/05/19 08:18:11;;;;;;;9.70;5.97;;;;;;;13.11;60.70;99759.81;5026566;28;20049;-72
2023/05/19 08:20:39;;;;;;;9.43;5.97;;;;;;;13.33;60.76;99783.34;5026483;28;20084;-72
2023/05/19 08:23:06;;;;;;;7.63;5.70;;;;;;;13.42;60.73;99784.63;5027208;28;20069;-72
2023/05/19 08:25:33;;;;;;;9.48;7.65;;;;;;;13.57;60.27;99772.22;5027741;28;20076;-72
2023/05/19 08:27:59;;;;;;;8.85;7.13;;;;;;;13.65;59.97;99762.81;5027761;28;20222;-72
2023/05/19 08:30:26;;;;;;;7.70;6.75;;;;;;;13.70;60.01;99771.38;5027121;28;20187;-72
2023/05/19 08:32:53;;;;;;;11.32;7.45;;;;;;;13.78;59.72;99768.22;5027680;28;20042;-72
2023/05/19 08:35:20;;;;;;;10.38;7.07;;;;;;;13.91;60.23;99758.53;5027313;28;20222;-72
2023/05/19 08:37:48;;;;;;;9.02;6.05;;;;;;;13.30;59.06;99638.94;5027321;28;20048;-72
2023/05/19 08:40:17;;;;;;;9.52;6.07;;;;;;;13.94;59.24;99766.31;5026963;28;20041;-72
2023/05/19 08:42:44;;;;;;;7.45;5.63;;;;;;;13.97;59.30;99758.13;5027617;28;20225;-71
2023/05/19 08:45:11;;;;;;;8.32;5.30;;;;;;;13.88;59.50;99737.41;5026602;28;20121;-72
2023/05/19 08:47:39;;;;;;;8.93;7.65;;;;;;;14.05;59.46;99755.00;5027259;28;20048;-72
2023/05/19 08:50:09;;;;;;;9.20;7.18;;;;;;;13.68;59.32;99682.72;5027147;28;20088;-72
2023/05/19 08:52:45;;;;;;;8.75;6.57;;;;;;;14.13;58.58;99752.69;5027195;28;20053;-72
2023/05/19 08:55:24;;;;;;;7.93;5.85;;;;;;;14.15;58.23;99756.13;5026649;28;20041;-72
2023/05/19 08:57:52;;;;;;;7.90;5.43;;;;;;;14.11;59.56;99743.94;5025227;28;20056;-72
2023/05/19 09:00:19;;;;;;;9.52;6.85;;;;;;;14.09;59.36;99752.03;5026478;28;20110;-72
2023/05/19 09:02:49;;;;;;;6.95;5.57;;;;;;;14.10;59.63;99748.41;5026922;28;20045;-72
2023/05/19 09:05:17;;;;;;;7.63;5.68;;;;;;;14.09;59.88;99749.38;5025543;28;20046;-72
2023/05/19 09:07:45;;;;;;;7.78;5.85;;;;;;;14.12;59.61;99745.66;5027230;28;20041;-72
2023/05/19 09:10:15;;;;;;;7.25;5.60;;;;;;;14.13;59.59;99742.03;5026771;28;20042;-72
2023/05/19 09:12:45;;;;;;;6.57;5.25;;;;;;;14.14;60.10;99749.06;5026293;28;20042;-72
2023/05/19 09:15:12;;;;;;;7.22;5.95;;;;;;;14.02;59.45;99723.22;5026848;28;20057;-72
2023/05/19 09:17:39;;;;;;;7.35;5.40;;;;;;;14.14;59.45;99743.75;5025405;28;20057;-72
2023/05/19 09:20:10;;;;;;;7.03;5.43;;;;;;;14.21;59.14;99744.22;5026871;28;20100;-72
2023/05/19 09:22:41;;;;;;;8.60;6.50;;;;;;;14.36;59.02;99738.75;5025039;28;20054;-72
2023/05/19 09:25:19;;;;;;;11.00;6.47;;;;;;;14.52;58.06;99735.09;5025887;28;20109;-72
2023/05/19 09:27:47;;;;;;;8.23;6.03;;;;;;;14.64;58.73;99745.88;5026068;28;20038;-72
2023/05/19 09:30:16;;;;;;;6.60;5.50;;;;;;;14.68;58.64;99730.53;5025453;28;20049;-72
2023/05/19 09:32:42;;;;;;;8.38;6.35;;;;;;;14.77;58.70;99735.25;5026371;28;20042;-72
2023/05/19 09:35:11;;;;;;;6.97;5.78;;;;;;;14.89;58.53;99736.25;5025900;28;20054;-72
2023/05/19 09:37:39;;;;;;;6.97;5.50;;;;;;;14.92;57.99;99728.88;5025980;28;20042;-72
2023/05/19 09:40:09;;;;;;;7.28;5.65;;;;;;;14.92;58.28;99730.69;5026120;28;20034;-72
2023/05/19 09:42:39;;;;;;;8.25;5.75;;;;;;;15.00;57.93;99729.22;5026391;28;20202;-73
2023/05/19 09:45:07;;;;;;;7.63;5.95;;;;;;;15.20;58.16;99729.69;5025950;28;20278;-72
2023/05/19 09:47:36;;;;;;;6.95;5.82;;;;;;;15.21;58.13;99686.00;5026381;28;20042;-72
2023/05/19 09:50:05;;;;;;;7.95;5.43;;;;;;;15.57;57.19;99715.50;5026211;28;20065;-72
2023/05/19 09:52:34;;;;;;;9.75;5.78;;;;;;;15.68;56.98;99710.28;5024928;28;20340;-72
2023/05/19 09:55:03;;;;;;;7.18;5.88;;;;;;;15.68;56.85;99714.78;5025796;28;20047;-72
2023/05/19 09:57:35;;;;;;;9.32;6.38;;;;;;;15.69;56.31;99706.66;5026162;28;20368;-72
2023/05/19 10:00:22;;;;;;;7.10;5.55;;;;;;;15.76;56.40;99707.09;5025836;28;20110;-72
2023/05/19 10:02:49;;;;;;;6.95;5.88;;;;;;;15.79;57.17;99700.66;5025086;28;20068;-73
2023/05/19 10:05:18;;;;;;;8.00;4.97;;;;;;;15.88;56.93;99705.34;5025598;28;20377;-72
2023/05/19 10:07:47;;;;;;;7.43;5.22;;;;;;;16.00;56.85;99701.81;5024621;28;20045;-72
2023/05/19 10:10:15;;;;;;;6.07;4.45;;;;;;;16.07;56.60;99697.72;5024761;28;20253;-73
2023/05/19 10:12:42;;;;;;;6.95;5.03;;;;;;;16.10;56.55;99694.81;5024626;28;20041;-73
2023/05/19 10:15:13;;;;;;;5.05;4.20;;;;;;;16.09;55.35;99702.94;5025734;28;20216;-72
2023/05/19 10:17:40;;;;;;;8.60;5.18;;;;;;;16.13;56.52;99704.44;5025790;28;20311;-73
2023/05/19 10:20:11;;;;;;;6.25;4.57;;;;;;;16.17;55.90;99701.44;5025765;28;20049;-72
2023/05/19 10:22:38;;;;;;;6.13;4.85;;;;;;;15.83;56.05;99638.88;5025181;28;20117;-72
2023/05/19 10:25:06;;;;;;;7.22;5.00;;;;;;;16.28;55.77;99690.81;5024244;28;20044;-73
2023/05/19 10:27:36;;;;;;;5.82;5.20;;;;;;;16.35;55.96;99694.75;5025437;28;20042;-73
2023/05/19 10:30:10;;;;;;;5.85;4.80;;;;;;;16.41;54.80;99687.22;5025552;28;20038;-73
2023/05/19 10:32:41;;;;;;;6.55;4.35;;;;;;;16.52;55.68;99685.47;5025397;28;20294;-73
2023/05/19 10:35:41;;;;;;;4.93;4.43;;;;;;;16.61;54.14;99683.94;5025327;28;20048;-73
2023/05/19 10:38:16;;;;;;;5.60;4.65;;;;;;;16.57;54.04;99679.78;5024872;28;20061;-73
2023/05/19 10:40:55;;;;;;;6.28;5.63;;;;;;;16.52;54.01;99687.28;5025873;28;20038;-73
2023/05/19 10:43:30;;;;;;;8.32;5.15;;;;;;;16.57;54.63;99683.31;5025313;28;20057;-73
2023/05/19 10:45:58;;;;;;;5.68;4.72;;;;;;;16.64;55.00;99676.53;5025079;28;20050;-73
2023/05/19 10:48:26;;;;;;;6.18;4.43;;;;;;;16.68;54.77;99669.16;5025588;28;20057;-73
2023/05/19 10:50:54;;;;;;;5.22;4.35;;;;;;;16.47;55.25;99633.28;5025449;28;20262;-73
2023/05/19 10:53:21;;;;;;;6.47;5.43;;;;;;;16.83;55.36;99648.41;5025111;28;20060;-73
2023/05/19 10:55:52;;;;;;;6.38;4.13;;;;;;;16.96;53.98;99650.03;5024911;28;20065;-73
2023/05/19 10:58:37;;;;;;;5.85;4.28;;;;;;;17.11;52.50;99666.72;5025260;28;20053;-73
2023/05/19 11:01:08;;;;;;;7.88;4.68;;;;;;;17.21;53.82;99664.22;5024513;28;20066;-73
2023/05/19 11:03:46;;;;;;;3.97;3.42;;;;;;;17.10;53.16;99669.53;5024099;28;20301;-72
2023/05/19 11:06:20;;;;;;;4.68;3.60;;;;;;;17.05;53.36;99674.38;5025118;28;20050;-73
2023/05/19 11:08:52;;;;;;;4.97;3.65;;;;;;;17.07;54.58;99670.63;5023990;28;20096;-72
2023/05/19 11:11:18;;;;;;;8.35;4.60;;;;;;;17.02;54.74;99662.09;5023999;28;20048;-73
2023/05/19 11:13:48;;;;;;;6.28;4.60;;;;;;;17.00;54.41;99666.69;5024858;28;20048;-73
2023/05/19 11:16:14;;;;;;;6.25;3.95;;;;;;;17.06;54.67;99654.66;5024946;28;20042;-73
2023/05/19 11:18:41;;;;;;;6.03;4.25;;;;;;;17.17;54.54;99660.03;5023728;28;20041;-73
2023/05/19 11:21:10;;;;;;;5.95;4.78;;;;;;;17.25;54.45;99657.66;5027021;28;20394;-73
2023/05/19 11:23:38;;;;;;;5.60;4.22;;;;;;;17.24;54.34;99659.47;5028356;28;20053;-73
2023/05/19 11:26:07;;;;;;;5.85;4.40;;;;;;;17.19;54.07;99664.31;5028643;28;20041;-73
2023/05/19 11:28:35;;;;;;;5.68;4.43;;;;;;;17.14;54.98;99665.63;5027299;28;20080;-73
2023/05/19 11:31:02;;;;;;;7.32;4.53;;;;;;;17.09;55.31;99662.47;5028280;28;20058;-73
2023/05/19 11:33:32;;;;;;;6.88;4.00;;;;;;;17.05;55.54;99652.97;5028460;28;20045;-75
2023/05/19 11:35:59;;;;;;;6.68;3.95;;;;;;;17.06;55.58;99650.16;5027016;28;20048;-74
2023/05/19 11:38:28;;;;;;;6.07;4.50;;;;;;;17.08;55.16;99645.53;5028050;28;20053;-72